createdAt,value
2018-12-21T00:00:56.507Z,1008.47
2018-12-21T00:01:56.470Z,1008.50
2018-12-21T00:02:56.456Z,1008.52
2018-12-21T00:03:56.447Z,1008.53
2018-12-21T00:04:56.439Z,1008.50
2018-12-21T00:05:56.426Z,1008.48
2018-12-21T00:06:56.425Z,1008.50
2018-12-21T00:07:56.403Z,1008.49
2018-12-21T00:08:56.389Z,1008.48
2018-12-21T00:09:56.383Z,1008.44
2018-12-21T00:10:56.376Z,1008.45
2018-12-21T00:11:56.864Z,1008.45
2018-12-21T00:12:56.345Z,1008.45
2018-12-21T00:13:56.337Z,1008.48
2018-12-21T00:14:56.334Z,1008.48
2018-12-21T00:15:56.316Z,1008.47
2018-12-21T00:16:56.325Z,1008.49
2018-12-21T00:17:56.536Z,1008.45
2018-12-21T00:18:57.320Z,1008.46
2018-12-21T00:19:56.305Z,1008.42
2018-12-21T00:20:56.261Z,1008.41
2018-12-21T00:21:56.264Z,1008.38
2018-12-21T00:22:56.235Z,1008.38
2018-12-21T00:23:56.224Z,1008.37
2018-12-21T00:24:56.211Z,1008.36
2018-12-21T00:25:56.214Z,1008.36
2018-12-21T00:26:56.201Z,1008.35
2018-12-21T00:27:56.181Z,1008.34
2018-12-21T00:28:56.169Z,1008.37
2018-12-21T00:29:56.155Z,1008.31
2018-12-21T00:30:56.145Z,1008.29
2018-12-21T00:31:56.151Z,1008.31
2018-12-21T00:32:56.128Z,1008.34
2018-12-21T00:33:56.117Z,1008.28
2018-12-21T00:34:56.099Z,1008.30
2018-12-21T00:35:56.089Z,1008.29
2018-12-21T00:36:56.102Z,1008.27
2018-12-21T00:37:56.066Z,1008.27
2018-12-21T00:38:56.079Z,1008.30
2018-12-21T00:39:56.044Z,1008.22
2018-12-21T00:40:56.036Z,1008.22
2018-12-21T00:41:56.038Z,1008.22
2018-12-21T00:42:56.009Z,1008.20
2018-12-21T00:43:56.004Z,1008.26
2018-12-21T00:44:55.988Z,1008.26
2018-12-21T00:45:55.981Z,1008.28
2018-12-21T00:46:55.987Z,1008.26
2018-12-21T00:47:56.862Z,1008.26
2018-12-21T00:48:55.943Z,1008.23
2018-12-21T00:49:55.985Z,1008.27
2018-12-21T00:50:55.929Z,1008.24
2018-12-21T00:51:55.982Z,1008.25
2018-12-21T00:52:55.933Z,1008.23
2018-12-21T00:53:56.003Z,1008.27
2018-12-21T00:55:02.953Z,1008.31
2018-12-21T00:55:55.896Z,1008.27
2018-12-21T00:56:55.865Z,1008.33
2018-12-21T00:57:55.866Z,1008.36
2018-12-21T00:58:55.856Z,1008.29
2018-12-21T00:59:55.836Z,1008.36
2018-12-21T01:00:56.411Z,1008.40
2018-12-21T01:01:55.832Z,1008.39
2018-12-21T01:02:56.852Z,1008.36
2018-12-21T01:03:55.825Z,1008.35
2018-12-21T01:04:55.791Z,1008.40
2018-12-21T01:05:55.781Z,1008.39
2018-12-21T01:06:55.759Z,1008.43
2018-12-21T01:07:55.757Z,1008.46
2018-12-21T01:08:55.793Z,1008.44
2018-12-21T01:09:55.730Z,1008.43
2018-12-21T01:10:55.720Z,1008.44
2018-12-21T01:11:56.370Z,1008.43
2018-12-21T01:12:56.349Z,1008.45
2018-12-21T01:13:55.698Z,1008.47
2018-12-21T01:14:55.666Z,1008.46
2018-12-21T01:15:55.684Z,1008.46
2018-12-21T01:16:55.661Z,1008.44
2018-12-21T01:17:56.408Z,1008.44
2018-12-21T01:18:55.643Z,1008.45
2018-12-21T01:19:55.653Z,1008.51
2018-12-21T01:20:55.609Z,1008.47
2018-12-21T01:21:55.591Z,1008.51
2018-12-21T01:22:55.604Z,1008.50
2018-12-21T01:23:55.571Z,1008.47
2018-12-21T01:24:55.583Z,1008.46
2018-12-21T01:25:55.556Z,1008.45
2018-12-21T01:26:55.542Z,1008.43
2018-12-21T01:27:55.565Z,1008.46
2018-12-21T01:28:55.515Z,1008.48
2018-12-21T01:29:55.532Z,1008.43
2018-12-21T01:30:55.496Z,1008.42
2018-12-21T01:31:55.512Z,1008.40
2018-12-21T01:32:56.357Z,1008.44
2018-12-21T01:33:55.501Z,1008.43
2018-12-21T01:34:55.454Z,1008.39
2018-12-21T01:35:55.454Z,1008.36
2018-12-21T01:36:55.478Z,1008.36
2018-12-21T01:37:55.486Z,1008.31
2018-12-21T01:38:55.406Z,1008.35
2018-12-21T01:39:55.388Z,1008.30
2018-12-21T01:40:55.394Z,1008.31
2018-12-21T01:41:55.393Z,1008.28
2018-12-21T01:42:55.417Z,1008.29
2018-12-21T01:43:55.372Z,1008.27
2018-12-21T01:44:55.873Z,1008.30
2018-12-21T01:45:55.350Z,1008.30
2018-12-21T01:46:55.322Z,1008.30
2018-12-21T01:47:55.398Z,1008.23
2018-12-21T01:48:55.854Z,1008.23
2018-12-21T01:49:55.301Z,1008.22
2018-12-21T01:50:55.263Z,1008.21
2018-12-21T01:51:55.264Z,1008.15
2018-12-21T01:52:55.269Z,1008.12
2018-12-21T01:53:55.280Z,1008.10
2018-12-21T01:54:55.233Z,1008.10
2018-12-21T01:55:55.245Z,1008.10
2018-12-21T01:56:55.862Z,1008.15
2018-12-21T01:57:55.225Z,1008.13
2018-12-21T01:58:55.231Z,1008.11
2018-12-21T01:59:55.179Z,1008.12
2018-12-21T02:00:55.184Z,1008.08
2018-12-21T02:01:55.170Z,1008.08
2018-12-21T02:02:55.135Z,1008.07
2018-12-21T02:03:55.190Z,1008.02
2018-12-21T02:04:55.161Z,1008.04
2018-12-21T02:05:55.101Z,1008.08
2018-12-21T02:06:55.128Z,1008.04
2018-12-21T02:07:55.880Z,1008.05
2018-12-21T02:08:55.097Z,1008.07
2018-12-21T02:09:55.107Z,1008.00
2018-12-21T02:10:55.068Z,1008.00
2018-12-21T02:11:55.135Z,1008.02
2018-12-21T02:12:55.058Z,1008.03
2018-12-21T02:13:55.056Z,1007.97
2018-12-21T02:14:55.007Z,1007.96
2018-12-21T02:15:55.066Z,1007.94
2018-12-21T02:16:55.006Z,1007.93
2018-12-21T02:17:54.994Z,1007.87
2018-12-21T02:18:55.025Z,1007.91
2018-12-21T02:19:54.999Z,1007.90
2018-12-21T02:20:55.862Z,1007.92
2018-12-21T02:21:56.006Z,1007.93
2018-12-21T02:22:54.928Z,1007.89
2018-12-21T02:23:54.954Z,1007.86
2018-12-21T02:24:54.927Z,1007.93
2018-12-21T02:25:54.904Z,1007.91
2018-12-21T02:26:55.361Z,1007.91
2018-12-21T02:27:54.887Z,1007.87
2018-12-21T02:28:54.913Z,1007.85
2018-12-21T02:29:54.873Z,1007.85
2018-12-21T02:30:54.842Z,1007.88
2018-12-21T02:31:54.842Z,1007.83
2018-12-21T02:32:54.832Z,1007.85
2018-12-21T02:33:54.806Z,1007.86
2018-12-21T02:34:54.828Z,1007.86
2018-12-21T02:35:54.793Z,1007.85
2018-12-21T02:36:54.806Z,1007.85
2018-12-21T02:37:54.792Z,1007.86
2018-12-21T02:38:54.769Z,1007.83
2018-12-21T02:39:54.739Z,1007.82
2018-12-21T02:40:54.711Z,1007.83
2018-12-21T02:41:54.705Z,1007.89
2018-12-21T02:42:55.366Z,1007.83
2018-12-21T02:43:54.736Z,1007.83
2018-12-21T02:44:54.686Z,1007.80
2018-12-21T02:45:54.714Z,1007.84
2018-12-21T02:46:54.701Z,1007.85
2018-12-21T02:47:54.691Z,1007.84
2018-12-21T02:48:54.620Z,1007.87
2018-12-21T02:49:54.634Z,1007.83
2018-12-21T02:50:54.619Z,1007.82
2018-12-21T02:51:55.362Z,1007.83
2018-12-21T02:52:54.613Z,1007.81
2018-12-21T02:53:54.582Z,1007.80
2018-12-21T02:54:54.608Z,1007.82
2018-12-21T02:55:54.565Z,1007.81
2018-12-21T02:56:54.585Z,1007.80
2018-12-21T02:57:54.542Z,1007.79
2018-12-21T02:58:54.550Z,1007.80
2018-12-21T02:59:55.424Z,1007.79
2018-12-21T03:00:54.488Z,1007.79
2018-12-21T03:01:54.572Z,1007.74
2018-12-21T03:02:54.471Z,1007.76
2018-12-21T03:03:54.451Z,1007.74
2018-12-21T03:04:54.455Z,1007.72
2018-12-21T03:05:54.499Z,1007.71
2018-12-21T03:06:54.414Z,1007.73
2018-12-21T03:07:54.395Z,1007.71
2018-12-21T03:08:54.401Z,1007.70
2018-12-21T03:09:54.393Z,1007.69
2018-12-21T03:10:54.368Z,1007.67
2018-12-21T03:11:54.362Z,1007.68
2018-12-21T03:12:54.341Z,1007.65
2018-12-21T03:13:54.343Z,1007.63
2018-12-21T03:14:54.332Z,1007.62
2018-12-21T03:15:54.333Z,1007.60
2018-12-21T03:16:54.298Z,1007.62
2018-12-21T03:17:54.290Z,1007.60
2018-12-21T03:18:54.279Z,1007.59
2018-12-21T03:19:54.290Z,1007.61
2018-12-21T03:20:54.260Z,1007.59
2018-12-21T03:21:54.243Z,1007.58
2018-12-21T03:22:54.246Z,1007.61
2018-12-21T03:23:54.227Z,1007.62
2018-12-21T03:24:54.222Z,1007.61
2018-12-21T03:25:54.206Z,1007.58
2018-12-21T03:26:54.187Z,1007.59
2018-12-21T03:27:54.177Z,1007.60
2018-12-21T03:28:54.159Z,1007.60
2018-12-21T03:29:54.191Z,1007.61
2018-12-21T03:30:54.141Z,1007.63
2018-12-21T03:31:54.180Z,1007.64
2018-12-21T03:32:54.122Z,1007.64
2018-12-21T03:33:54.119Z,1007.67
2018-12-21T03:34:54.123Z,1007.61
2018-12-21T03:35:54.087Z,1007.61
2018-12-21T03:36:54.076Z,1007.57
2018-12-21T03:37:54.067Z,1007.61
2018-12-21T03:38:54.057Z,1007.57
2018-12-21T03:39:54.056Z,1007.54
2018-12-21T03:40:54.065Z,1007.55
2018-12-21T03:41:54.018Z,1007.49
2018-12-21T03:42:54.015Z,1007.54
2018-12-21T03:43:53.995Z,1007.56
2018-12-21T03:44:53.994Z,1007.52
2018-12-21T03:45:53.991Z,1007.54
2018-12-21T03:46:53.966Z,1007.51
2018-12-21T03:47:53.954Z,1007.53
2018-12-21T03:48:53.942Z,1007.51
2018-12-21T03:49:53.934Z,1007.49
2018-12-21T03:50:53.935Z,1007.45
2018-12-21T03:51:53.908Z,1007.45
2018-12-21T03:52:53.893Z,1007.47
2018-12-21T03:53:53.881Z,1007.41
2018-12-21T03:54:53.873Z,1007.42
2018-12-21T03:55:53.884Z,1007.42
2018-12-21T03:56:53.854Z,1007.42
2018-12-21T03:57:53.850Z,1007.42
2018-12-21T03:58:53.828Z,1007.38
2018-12-21T03:59:53.821Z,1007.36
2018-12-21T04:00:53.821Z,1007.38
2018-12-21T04:01:53.801Z,1007.35
2018-12-21T04:02:53.793Z,1007.34
2018-12-21T04:03:53.779Z,1007.33
2018-12-21T04:04:53.766Z,1007.33
2018-12-21T04:05:53.885Z,1007.32
2018-12-21T04:06:53.767Z,1007.35
2018-12-21T04:07:53.731Z,1007.36
2018-12-21T04:08:53.735Z,1007.32
2018-12-21T04:09:53.705Z,1007.30
2018-12-21T04:10:53.762Z,1007.30
2018-12-21T04:11:53.683Z,1007.33
2018-12-21T04:12:53.689Z,1007.26
2018-12-21T04:13:53.673Z,1007.29
2018-12-21T04:14:53.655Z,1007.21
2018-12-21T04:15:53.638Z,1007.26
2018-12-21T04:16:53.701Z,1007.21
2018-12-21T04:17:53.621Z,1007.22
2018-12-21T04:18:53.603Z,1007.25
2018-12-21T04:19:53.600Z,1007.24
2018-12-21T04:20:53.587Z,1007.24
2018-12-21T04:21:53.597Z,1007.26
2018-12-21T04:22:53.563Z,1007.26
2018-12-21T04:23:53.567Z,1007.24
2018-12-21T04:24:53.541Z,1007.24
2018-12-21T04:25:53.533Z,1007.23
2018-12-21T04:26:53.526Z,1007.22
2018-12-21T04:27:53.504Z,1007.19
2018-12-21T04:28:53.493Z,1007.20
2018-12-21T04:29:53.487Z,1007.20
2018-12-21T04:30:53.475Z,1007.19
2018-12-21T04:31:53.469Z,1007.24
2018-12-21T04:32:53.446Z,1007.21
2018-12-21T04:33:53.430Z,1007.21
2018-12-21T04:34:53.421Z,1007.19
2018-12-21T04:35:53.406Z,1007.17
2018-12-21T04:36:53.432Z,1007.21
2018-12-21T04:37:53.387Z,1007.19
2018-12-21T04:38:53.377Z,1007.22
2018-12-21T04:39:53.363Z,1007.18
2018-12-21T04:40:53.361Z,1007.20
2018-12-21T04:41:53.346Z,1007.23
2018-12-21T04:42:53.340Z,1007.22
2018-12-21T04:43:53.320Z,1007.22
2018-12-21T04:44:53.306Z,1007.24
2018-12-21T04:45:53.299Z,1007.16
2018-12-21T04:46:53.285Z,1007.22
2018-12-21T04:47:53.287Z,1007.20
2018-12-21T04:48:53.379Z,1007.24
2018-12-21T04:49:53.255Z,1007.20
2018-12-21T04:50:53.240Z,1007.21
2018-12-21T04:51:53.228Z,1007.19
2018-12-21T04:52:53.226Z,1007.18
2018-12-21T04:53:53.205Z,1007.17
2018-12-21T04:54:53.193Z,1007.12
2018-12-21T04:55:53.187Z,1007.11
2018-12-21T04:56:53.172Z,1007.10
2018-12-21T04:57:53.171Z,1007.08
2018-12-21T04:58:53.156Z,1007.07
2018-12-21T04:59:53.144Z,1007.10
2018-12-21T05:00:53.129Z,1007.06
2018-12-21T05:01:53.117Z,1007.04
2018-12-21T05:02:53.122Z,1007.06
2018-12-21T05:03:53.095Z,1007.02
2018-12-21T05:04:53.083Z,1007.08
2018-12-21T05:05:53.069Z,1007.08
2018-12-21T05:06:53.061Z,1007.07
2018-12-21T05:07:53.060Z,1007.05
2018-12-21T05:08:53.036Z,1007.02
2018-12-21T05:09:53.029Z,1007.08
2018-12-21T05:10:53.016Z,1006.99
2018-12-21T05:11:53.006Z,1007.03
2018-12-21T05:12:53.003Z,1007.01
2018-12-21T05:13:52.982Z,1007.03
2018-12-21T05:14:52.970Z,1007.03
2018-12-21T05:15:52.968Z,1007.01
2018-12-21T05:16:52.967Z,1007.00
2018-12-21T05:17:52.968Z,1006.95
2018-12-21T05:18:52.929Z,1006.95
2018-12-21T05:19:52.921Z,1007.01
2018-12-21T05:20:52.903Z,1006.98
2018-12-21T05:21:52.895Z,1006.98
2018-12-21T05:22:52.886Z,1006.94
2018-12-21T05:23:52.883Z,1006.97
2018-12-21T05:24:52.860Z,1006.95
2018-12-21T05:25:52.847Z,1006.93
2018-12-21T05:26:52.851Z,1006.95
2018-12-21T05:27:52.828Z,1006.95
2018-12-21T05:28:52.837Z,1006.92
2018-12-21T05:29:52.808Z,1006.93
2018-12-21T05:30:52.797Z,1006.93
2018-12-21T05:31:52.782Z,1006.91
2018-12-21T05:32:52.773Z,1006.92
2018-12-21T05:33:52.773Z,1006.87
2018-12-21T05:34:52.748Z,1006.89
2018-12-21T05:35:52.739Z,1006.93
2018-12-21T05:36:52.726Z,1006.89
2018-12-21T05:37:52.712Z,1006.86
2018-12-21T05:38:52.722Z,1006.91
2018-12-21T05:39:52.690Z,1006.85
2018-12-21T05:40:52.680Z,1006.91
2018-12-21T05:41:52.672Z,1006.86
2018-12-21T05:42:52.656Z,1006.84
2018-12-21T05:43:52.658Z,1006.86
2018-12-21T05:44:52.634Z,1006.78
2018-12-21T05:45:52.622Z,1006.80
2018-12-21T05:46:52.615Z,1006.83
2018-12-21T05:47:53.610Z,1006.79
2018-12-21T05:48:52.612Z,1006.79
2018-12-21T05:49:52.603Z,1006.78
2018-12-21T05:50:52.571Z,1006.71
2018-12-21T05:51:52.565Z,1006.72
2018-12-21T05:53:00.609Z,1006.69
2018-12-21T05:53:53.561Z,1006.65
2018-12-21T05:54:52.604Z,1006.67
2018-12-21T05:55:52.541Z,1006.66
2018-12-21T05:56:52.509Z,1006.62
2018-12-21T05:57:52.515Z,1006.64
2018-12-21T05:58:52.500Z,1006.62
2018-12-21T05:59:52.484Z,1006.61
2018-12-21T06:00:52.486Z,1006.63
2018-12-21T06:01:52.467Z,1006.61
2018-12-21T06:02:52.443Z,1006.58
2018-12-21T06:03:52.444Z,1006.55
2018-12-21T06:04:52.461Z,1006.53
2018-12-21T06:05:52.416Z,1006.47
2018-12-21T06:06:52.438Z,1006.46
2018-12-21T06:07:52.402Z,1006.44
2018-12-21T06:08:52.438Z,1006.43
2018-12-21T06:09:52.370Z,1006.43
2018-12-21T06:10:52.365Z,1006.40
2018-12-21T06:11:52.346Z,1006.35
2018-12-21T06:12:52.348Z,1006.35
2018-12-21T06:13:52.331Z,1006.36
2018-12-21T06:14:52.322Z,1006.39
2018-12-21T06:15:52.320Z,1006.34
2018-12-21T06:16:52.285Z,1006.32
2018-12-21T06:17:52.282Z,1006.32
2018-12-21T06:18:52.269Z,1006.26
2018-12-21T06:19:52.294Z,1006.29
2018-12-21T06:20:52.238Z,1006.24
2018-12-21T06:21:52.239Z,1006.22
2018-12-21T06:22:52.222Z,1006.23
2018-12-21T06:23:52.249Z,1006.22
2018-12-21T06:24:52.215Z,1006.20
2018-12-21T06:25:52.192Z,1006.19
2018-12-21T06:26:52.178Z,1006.13
2018-12-21T06:27:52.199Z,1006.14
2018-12-21T06:28:52.174Z,1006.10
2018-12-21T06:29:52.175Z,1006.09
2018-12-21T06:30:52.163Z,1006.08
2018-12-21T06:31:52.115Z,1006.02
2018-12-21T06:32:52.131Z,1006.01
2018-12-21T06:33:52.102Z,1005.98
2018-12-21T06:34:52.136Z,1005.99
2018-12-21T06:35:52.149Z,1005.96
2018-12-21T06:36:52.077Z,1005.98
2018-12-21T06:37:52.060Z,1005.87
2018-12-21T06:38:52.069Z,1005.85
2018-12-21T06:39:52.070Z,1005.83
2018-12-21T06:40:52.035Z,1005.79
2018-12-21T06:41:52.011Z,1005.77
2018-12-21T06:42:51.991Z,1005.87
2018-12-21T06:43:51.992Z,1005.87
2018-12-21T06:44:51.979Z,1005.89
2018-12-21T06:45:51.996Z,1005.84
2018-12-21T06:46:51.949Z,1005.88
2018-12-21T06:47:52.007Z,1005.88
2018-12-21T06:48:52.893Z,1005.87
2018-12-21T06:49:51.912Z,1005.90
2018-12-21T06:50:51.911Z,1005.82
2018-12-21T06:51:51.885Z,1005.87
2018-12-21T06:52:51.876Z,1005.86
2018-12-21T06:53:51.866Z,1005.84
2018-12-21T06:54:51.861Z,1005.84
2018-12-21T06:55:51.854Z,1005.87
2018-12-21T06:56:51.830Z,1005.88
2018-12-21T06:57:51.820Z,1005.84
2018-12-21T06:58:51.808Z,1005.77
2018-12-21T06:59:51.802Z,1005.77
2018-12-21T07:00:51.808Z,1005.76
2018-12-21T07:01:51.776Z,1005.75
2018-12-21T07:02:51.775Z,1005.73
2018-12-21T07:03:51.751Z,1005.77
2018-12-21T07:04:51.744Z,1005.83
2018-12-21T07:05:51.738Z,1005.78
2018-12-21T07:06:51.719Z,1005.75
2018-12-21T07:07:51.708Z,1005.66
2018-12-21T07:08:51.704Z,1005.65
2018-12-21T07:09:51.685Z,1005.75
2018-12-21T07:10:51.687Z,1005.62
2018-12-21T07:11:51.670Z,1005.59
2018-12-21T07:12:51.655Z,1005.58
2018-12-21T07:13:51.643Z,1005.61
2018-12-21T07:14:51.626Z,1005.64
2018-12-21T07:15:51.631Z,1005.54
2018-12-21T07:16:51.609Z,1005.55
2018-12-21T07:17:51.594Z,1005.57
2018-12-21T07:18:51.583Z,1005.57
2018-12-21T07:19:51.581Z,1005.56
2018-12-21T07:20:51.586Z,1005.54
2018-12-21T07:21:51.548Z,1005.52
2018-12-21T07:22:51.540Z,1005.51
2018-12-21T07:23:51.529Z,1005.54
2018-12-21T07:24:51.527Z,1005.50
2018-12-21T07:25:51.520Z,1005.47
2018-12-21T07:26:51.493Z,1005.55
2018-12-21T07:27:51.484Z,1005.48
2018-12-21T07:28:51.472Z,1005.51
2018-12-21T07:29:51.460Z,1005.48
2018-12-21T07:30:51.467Z,1005.51
2018-12-21T07:31:51.438Z,1005.44
2018-12-21T07:32:51.426Z,1005.41
2018-12-21T07:33:51.414Z,1005.41
2018-12-21T07:34:51.413Z,1005.39
2018-12-21T07:35:51.416Z,1005.42
2018-12-21T07:36:51.384Z,1005.40
2018-12-21T07:37:51.371Z,1005.40
2018-12-21T07:38:51.361Z,1005.37
2018-12-21T07:39:51.350Z,1005.33
2018-12-21T07:40:51.338Z,1005.36
2018-12-21T07:41:51.345Z,1005.41
2018-12-21T07:42:51.326Z,1005.32
2018-12-21T07:43:51.301Z,1005.36
2018-12-21T07:44:51.508Z,1005.37
2018-12-21T07:45:51.478Z,1005.35
2018-12-21T07:46:51.284Z,1005.36
2018-12-21T07:47:51.267Z,1005.31
2018-12-21T07:48:51.254Z,1005.32
2018-12-21T07:49:51.243Z,1005.25
2018-12-21T07:50:51.226Z,1005.29
2018-12-21T07:51:51.239Z,1005.33
2018-12-21T07:52:53.245Z,1005.32
2018-12-21T07:53:51.189Z,1005.30
2018-12-21T07:54:51.179Z,1005.28
2018-12-21T07:55:51.276Z,1005.24
2018-12-21T07:56:51.171Z,1005.27
2018-12-21T07:57:51.144Z,1005.20
2018-12-21T07:58:57.097Z,1005.17
2018-12-21T07:59:52.138Z,1005.16
2018-12-21T08:00:51.116Z,1005.25
2018-12-21T08:01:51.132Z,1005.10
2018-12-21T08:02:51.103Z,1005.19
2018-12-21T08:03:51.090Z,1005.16
2018-12-21T08:04:51.079Z,1005.27
2018-12-21T08:05:51.059Z,1005.21
2018-12-21T08:06:51.085Z,1005.17
2018-12-21T08:07:51.036Z,1005.22
2018-12-21T08:08:51.030Z,1005.17
2018-12-21T08:09:51.022Z,1005.10
2018-12-21T08:10:51.022Z,1005.13
2018-12-21T08:11:50.994Z,1005.13
2018-12-21T08:12:50.995Z,1005.11
2018-12-21T08:13:50.971Z,1005.13
2018-12-21T08:14:50.958Z,1005.10
2018-12-21T08:15:50.950Z,1005.06
2018-12-21T08:16:50.938Z,1005.07
2018-12-21T08:17:50.938Z,1005.08
2018-12-21T08:18:50.913Z,1005.05
2018-12-21T08:19:50.901Z,1005.05
2018-12-21T08:20:50.891Z,1005.09
2018-12-21T08:21:50.880Z,1005.03
2018-12-21T08:22:50.877Z,1004.99
2018-12-21T08:23:50.853Z,1004.94
2018-12-21T08:24:50.843Z,1004.90
2018-12-21T08:25:50.832Z,1004.88
2018-12-21T08:26:50.817Z,1004.94
2018-12-21T08:27:50.818Z,1004.85
2018-12-21T08:28:50.880Z,1004.90
2018-12-21T08:29:50.783Z,1004.88
2018-12-21T08:30:50.771Z,1004.87
2018-12-21T08:31:50.762Z,1004.83
2018-12-21T08:32:50.762Z,1004.81
2018-12-21T08:33:50.740Z,1004.76
2018-12-21T08:34:50.733Z,1004.77
2018-12-21T08:35:50.716Z,1004.78
2018-12-21T08:36:50.709Z,1004.81
2018-12-21T08:37:50.708Z,1004.71
2018-12-21T08:38:50.695Z,1004.71
2018-12-21T08:39:50.673Z,1004.67
2018-12-21T08:40:50.667Z,1004.66
2018-12-21T08:41:50.651Z,1004.57
2018-12-21T08:42:50.651Z,1004.58
2018-12-21T08:43:50.630Z,1004.56
2018-12-21T08:44:50.618Z,1004.61
2018-12-21T08:45:50.605Z,1004.60
2018-12-21T08:46:50.596Z,1004.60
2018-12-21T08:47:50.591Z,1004.54
2018-12-21T08:48:50.881Z,1004.52
2018-12-21T08:49:50.565Z,1004.55
2018-12-21T08:50:50.550Z,1004.49
2018-12-21T08:51:50.539Z,1004.43
2018-12-21T08:52:50.547Z,1004.52
2018-12-21T08:53:52.606Z,1004.43
2018-12-21T08:54:50.504Z,1004.40
2018-12-21T08:55:50.491Z,1004.43
2018-12-21T08:56:50.482Z,1004.46
2018-12-21T08:57:50.488Z,1004.41
2018-12-21T08:58:50.459Z,1004.43
2018-12-21T08:59:50.448Z,1004.46
2018-12-21T09:00:50.439Z,1004.44
2018-12-21T09:01:50.426Z,1004.45
2018-12-21T09:02:50.427Z,1004.49
2018-12-21T09:03:50.405Z,1004.39
2018-12-21T09:04:50.394Z,1004.40
2018-12-21T09:05:50.379Z,1004.46
2018-12-21T09:06:50.374Z,1004.39
2018-12-21T09:07:50.380Z,1004.35
2018-12-21T09:08:50.347Z,1004.35
2018-12-21T09:09:50.334Z,1004.37
2018-12-21T09:10:50.347Z,1004.35
2018-12-21T09:11:50.315Z,1004.36
2018-12-21T09:12:50.314Z,1004.40
2018-12-21T09:13:50.291Z,1004.35
2018-12-21T09:14:50.282Z,1004.33
2018-12-21T09:15:50.267Z,1004.33
2018-12-21T09:16:50.256Z,1004.34
2018-12-21T09:17:50.255Z,1004.35
2018-12-21T09:18:50.230Z,1004.34
2018-12-21T09:19:50.224Z,1004.22
2018-12-21T09:20:50.209Z,1004.33
2018-12-21T09:21:50.196Z,1004.20
2018-12-21T09:22:50.202Z,1004.22
2018-12-21T09:23:50.198Z,1004.20
2018-12-21T09:24:50.164Z,1004.16
2018-12-21T09:25:50.153Z,1004.14
2018-12-21T09:26:50.144Z,1004.14
2018-12-21T09:27:50.158Z,1004.14
2018-12-21T09:28:50.199Z,1004.11
2018-12-21T09:29:50.111Z,1004.09
2018-12-21T09:30:50.096Z,1004.07
2018-12-21T09:31:50.926Z,1004.04
2018-12-21T09:32:50.078Z,1004.02
2018-12-21T09:33:50.087Z,1004.03
2018-12-21T09:34:50.060Z,1004.03
2018-12-21T09:35:50.062Z,1003.92
2018-12-21T09:36:50.038Z,1003.96
2018-12-21T09:37:50.056Z,1003.88
2018-12-21T09:38:50.027Z,1003.85
2018-12-21T09:39:50.021Z,1003.89
2018-12-21T09:40:49.992Z,1003.79
2018-12-21T09:41:49.986Z,1003.86
2018-12-21T09:42:49.994Z,1003.77
2018-12-21T09:43:50.048Z,1003.75
2018-12-21T09:44:52.583Z,1003.76
2018-12-21T09:45:49.943Z,1003.68
2018-12-21T09:46:49.948Z,1003.66
2018-12-21T09:47:49.918Z,1003.69
2018-12-21T09:48:50.893Z,1003.69
2018-12-21T09:49:49.916Z,1003.67
2018-12-21T09:50:49.888Z,1003.61
2018-12-21T09:51:49.883Z,1003.61
2018-12-21T09:52:49.862Z,1003.63
2018-12-21T09:53:49.878Z,1003.56
2018-12-21T09:54:50.395Z,1003.54
2018-12-21T09:55:49.816Z,1003.61
2018-12-21T09:56:49.806Z,1003.61
2018-12-21T09:57:49.830Z,1003.54
2018-12-21T09:58:49.798Z,1003.51
2018-12-21T09:59:49.770Z,1003.50
2018-12-21T10:00:49.760Z,1003.53
2018-12-21T10:01:49.746Z,1003.44
2018-12-21T10:02:49.745Z,1003.48
2018-12-21T10:03:49.775Z,1003.45
2018-12-21T10:04:49.740Z,1003.44
2018-12-21T10:05:49.716Z,1003.45
2018-12-21T10:06:49.803Z,1003.45
2018-12-21T10:07:49.744Z,1003.34
2018-12-21T10:08:49.815Z,1003.24
2018-12-21T10:09:49.702Z,1003.17
2018-12-21T10:10:50.659Z,1003.19
2018-12-21T10:11:49.643Z,1003.21
2018-12-21T10:12:53.363Z,1003.16
2018-12-21T10:13:49.646Z,1003.12
2018-12-21T10:14:49.644Z,1003.10
2018-12-21T10:15:49.613Z,1003.05
2018-12-21T10:16:49.607Z,1003.01
2018-12-21T10:17:49.566Z,1002.98
2018-12-21T10:18:49.634Z,1002.94
2018-12-21T10:19:49.546Z,1002.97
2018-12-21T10:20:49.536Z,1002.91
2018-12-21T10:21:49.524Z,1002.91
2018-12-21T10:22:49.508Z,1002.86
2018-12-21T10:23:49.528Z,1002.89
2018-12-21T10:24:49.495Z,1002.83
2018-12-21T10:25:49.475Z,1002.83
2018-12-21T10:26:49.462Z,1002.75
2018-12-21T10:27:49.452Z,1002.79
2018-12-21T10:28:49.442Z,1002.73
2018-12-21T10:29:49.440Z,1002.75
2018-12-21T10:30:49.416Z,1002.74
2018-12-21T10:31:49.402Z,1002.64
2018-12-21T10:32:49.398Z,1002.60
2018-12-21T10:33:49.387Z,1002.62
2018-12-21T10:34:49.392Z,1002.56
2018-12-21T10:35:49.372Z,1002.57
2018-12-21T10:36:49.348Z,1002.48
2018-12-21T10:37:49.339Z,1002.49
2018-12-21T10:38:49.324Z,1002.46
2018-12-21T10:39:49.329Z,1002.43
2018-12-21T10:40:49.304Z,1002.42
2018-12-21T10:41:49.292Z,1002.41
2018-12-21T10:42:49.286Z,1002.32
2018-12-21T10:43:49.266Z,1002.28
2018-12-21T10:44:49.269Z,1002.25
2018-12-21T10:45:49.247Z,1002.19
2018-12-21T10:46:49.234Z,1002.15
2018-12-21T10:47:49.227Z,1002.15
2018-12-21T10:48:49.208Z,1002.17
2018-12-21T10:49:49.209Z,1002.19
2018-12-21T10:50:49.187Z,1002.13
2018-12-21T10:51:49.269Z,1002.08
2018-12-21T10:52:49.166Z,1002.08
2018-12-21T10:53:49.154Z,1002.00
2018-12-21T10:54:49.157Z,1001.99
2018-12-21T10:55:49.130Z,1001.91
2018-12-21T10:56:49.125Z,1001.89
2018-12-21T10:57:49.107Z,1001.89
2018-12-21T10:58:49.976Z,1001.90
2018-12-21T10:59:49.098Z,1001.84
2018-12-21T11:00:49.074Z,1001.81
2018-12-21T11:01:49.064Z,1001.76
2018-12-21T11:02:49.056Z,1001.77
2018-12-21T11:03:49.049Z,1001.70
2018-12-21T11:04:49.042Z,1001.69
2018-12-21T11:05:49.015Z,1001.69
2018-12-21T11:06:49.005Z,1001.69
2018-12-21T11:07:48.991Z,1001.69
2018-12-21T11:08:48.983Z,1001.64
2018-12-21T11:09:49.006Z,1001.65
2018-12-21T11:10:48.963Z,1001.60
2018-12-21T11:11:48.948Z,1001.60
2018-12-21T11:12:48.941Z,1001.57
2018-12-21T11:13:48.924Z,1001.60
2018-12-21T11:14:48.918Z,1001.49
2018-12-21T11:15:48.917Z,1001.40
2018-12-21T11:16:48.888Z,1001.45
2018-12-21T11:17:48.883Z,1001.34
2018-12-21T11:18:48.865Z,1001.40
2018-12-21T11:19:48.854Z,1001.31
2018-12-21T11:20:48.861Z,1001.30
2018-12-21T11:21:48.835Z,1001.21
2018-12-21T11:22:48.820Z,1001.18
2018-12-21T11:23:48.812Z,1001.19
2018-12-21T11:24:48.803Z,1001.18
2018-12-21T11:25:48.800Z,1001.12
2018-12-21T11:26:48.789Z,1001.15
2018-12-21T11:27:48.765Z,1001.05
2018-12-21T11:28:48.757Z,1001.01
2018-12-21T11:29:49.674Z,1000.93
2018-12-21T11:30:48.755Z,1000.97
2018-12-21T11:31:48.723Z,1000.91
2018-12-21T11:32:48.712Z,1000.91
2018-12-21T11:33:48.696Z,1000.90
2018-12-21T11:34:48.685Z,1000.88
2018-12-21T11:35:48.687Z,1000.82
2018-12-21T11:36:48.664Z,1000.82
2018-12-21T11:37:48.655Z,1000.83
2018-12-21T11:38:48.641Z,1000.81
2018-12-21T11:39:48.630Z,1000.76
2018-12-21T11:40:48.628Z,1000.62
2018-12-21T11:41:48.606Z,1000.74
2018-12-21T11:42:48.599Z,1000.69
2018-12-21T11:43:48.589Z,1000.65
2018-12-21T11:44:48.577Z,1000.49
2018-12-21T11:45:48.573Z,1000.44
2018-12-21T11:46:48.551Z,1000.38
2018-12-21T11:47:48.542Z,1000.31
2018-12-21T11:48:48.532Z,1000.33
2018-12-21T11:49:48.517Z,1000.31
2018-12-21T11:50:48.508Z,1000.32
2018-12-21T11:51:48.506Z,1000.22
2018-12-21T11:52:48.482Z,1000.25
2018-12-21T11:53:48.473Z,1000.21
2018-12-21T11:54:48.462Z,1000.09
2018-12-21T11:55:48.461Z,1000.19
2018-12-21T11:56:48.438Z,1000.16
2018-12-21T11:57:48.428Z,1000.10
2018-12-21T11:58:48.420Z,999.94
2018-12-21T11:59:48.410Z,999.89
2018-12-21T12:00:48.408Z,999.97
2018-12-21T12:01:48.399Z,1000.00
2018-12-21T12:02:48.374Z,1000.00
2018-12-21T12:03:48.363Z,999.99
2018-12-21T12:04:48.347Z,999.97
2018-12-21T12:05:48.340Z,999.94
2018-12-21T12:06:48.348Z,999.91